Andover, Kansas
Current Conditions -  °F | °C
As of 1:54 PM on Monday 26 Jan 2015 (Local Time) from KAAO Reporting Station
Clear Clear  
Wind Chill: 68°   Ceiling: Unl
Heat Index: 68°   Visibility: 10mi
Dew Point: 35°   Wind: 12mph
Humidity: 30%   Direction: 310°NW
Pressure: 29.98"   Gusts: NA
Location:  37.71°N, 97.14°W
Report Text: KAAO 261954Z AUTO 31010KT 10SM CLR 20/02 A2998 RMK AO2 SLP153 T02000017
Loading
Personal Weather Stations






























Interactive Weather Map New forecast layout! Learn more

10-Day Weather Forecast

Advertisements
Track Severe Weather on mobile